createdAt,value
2022-10-14T00:02:31.143Z,41.53
2022-10-14T00:07:33.044Z,46.13
2022-10-14T00:12:34.597Z,43.17
2022-10-14T00:17:36.433Z,45.85
2022-10-14T00:22:37.828Z,44.20
2022-10-14T00:27:39.269Z,49.15
2022-10-14T00:32:40.635Z,54.97
2022-10-14T00:37:42.037Z,44.28
2022-10-14T00:42:43.420Z,48.53
2022-10-14T00:47:45.112Z,49.97
2022-10-14T00:52:46.960Z,44.40
2022-10-14T00:57:48.352Z,44.00
2022-10-14T01:02:49.719Z,43.28
2022-10-14T01:07:53.823Z,36.55
2022-10-14T01:13:08.065Z,36.05
2022-10-14T01:18:15.536Z,36.25
2022-10-14T01:23:38.676Z,33.67
2022-10-14T01:28:51.985Z,27.90
2022-10-14T01:33:58.380Z,30.65
2022-10-14T01:39:05.518Z,29.87
2022-10-14T01:44:12.004Z,32.55
2022-10-14T01:49:23.129Z,27.43
2022-10-14T01:54:31.167Z,29.35
2022-10-14T01:59:35.190Z,27.80
2022-10-14T02:04:36.554Z,24.55
2022-10-14T02:10:02.909Z,23.88
2022-10-14T02:15:15.090Z,26.98
2022-10-14T02:20:26.397Z,25.42
2022-10-14T02:25:32.644Z,31.77
2022-10-14T02:30:39.650Z,30.05
2022-10-14T02:35:42.992Z,32.15
2022-10-14T02:40:47.040Z,33.42
2022-10-14T02:45:48.400Z,29.45
2022-10-14T02:50:49.788Z,30.77
2022-10-14T02:55:51.168Z,30.92
2022-10-14T03:00:53.010Z,31.60
2022-10-14T03:05:55.467Z,31.50
2022-10-14T03:10:57.010Z,32.38
2022-10-14T03:15:59.074Z,32.35
2022-10-14T03:21:00.499Z,41.00
2022-10-14T03:26:01.875Z,33.75
2022-10-14T03:31:03.234Z,35.80
2022-10-14T03:36:04.739Z,36.78
2022-10-14T03:41:06.199Z,37.22
2022-10-14T03:46:07.548Z,36.42
2022-10-14T03:51:09.363Z,34.22
2022-10-14T03:56:10.873Z,36.65
2022-10-14T04:01:12.287Z,41.58
2022-10-14T04:06:14.520Z,40.53
2022-10-14T04:11:17.154Z,37.72
2022-10-14T04:16:18.550Z,43.78
2022-10-14T04:21:20.235Z,42.63
2022-10-14T04:26:21.582Z,41.58
2022-10-14T04:31:22.957Z,36.88
2022-10-14T04:36:24.318Z,48.55
2022-10-14T04:41:25.657Z,43.13
2022-10-14T04:46:27.063Z,38.92
2022-10-14T04:51:28.443Z,38.28
2022-10-14T04:56:29.855Z,36.08
2022-10-14T05:01:33.927Z,34.35
2022-10-14T05:06:37.304Z,37.53
2022-10-14T05:11:38.675Z,35.55
2022-10-14T05:16:40.074Z,38.25
2022-10-14T05:21:41.832Z,35.28
2022-10-14T05:26:43.233Z,47.47
2022-10-14T05:31:44.625Z,33.22
2022-10-14T05:36:46.054Z,35.63
2022-10-14T05:41:47.420Z,41.75
2022-10-14T05:46:48.791Z,36.08
2022-10-14T05:51:50.159Z,40.08
2022-10-14T05:56:51.690Z,35.00
2022-10-14T06:01:53.068Z,35.28
2022-10-14T06:06:54.577Z,34.65
2022-10-14T06:11:55.958Z,37.50
2022-10-14T06:16:57.328Z,36.45
2022-10-14T06:21:58.874Z,36.47
2022-10-14T06:27:00.230Z,38.63
2022-10-14T06:32:01.595Z,35.92
2022-10-14T06:37:02.964Z,36.65
2022-10-14T06:42:04.420Z,42.60
2022-10-14T06:47:07.169Z,37.10
2022-10-14T06:52:08.533Z,33.95
2022-10-14T06:57:09.930Z,39.50
2022-10-14T07:02:11.697Z,36.92
2022-10-14T07:07:13.046Z,34.47
2022-10-14T07:12:14.464Z,32.03
2022-10-14T07:17:15.835Z,26.25
2022-10-14T07:22:17.576Z,38.25
2022-10-14T07:27:20.699Z,28.73
2022-10-14T07:32:22.444Z,29.80
2022-10-14T07:37:24.251Z,31.73
2022-10-14T07:42:25.915Z,36.75
2022-10-14T07:47:27.667Z,35.55
2022-10-14T07:52:29.180Z,36.17
2022-10-14T07:57:30.711Z,31.77
2022-10-14T08:02:32.178Z,30.85
2022-10-14T08:07:33.571Z,35.78
2022-10-14T08:12:34.944Z,35.42
2022-10-14T08:17:36.340Z,31.10
2022-10-14T08:22:37.756Z,35.63
2022-10-14T08:27:39.089Z,40.50
2022-10-14T08:32:40.452Z,39.67
2022-10-14T08:37:42.378Z,42.28
2022-10-14T08:42:55.515Z,37.33
2022-10-14T08:48:00.457Z,34.08
2022-10-14T08:53:19.402Z,34.70
2022-10-14T08:58:28.651Z,38.85
2022-10-14T09:03:34.678Z,36.38
2022-10-14T09:08:42.195Z,45.58
2022-10-14T09:13:46.922Z,39.63
2022-10-14T09:18:58.061Z,40.00
2022-10-14T09:24:18.062Z,33.50
2022-10-14T09:29:25.878Z,40.90
2022-10-14T09:34:35.911Z,36.83
2022-10-14T09:39:40.287Z,33.67
2022-10-14T09:44:41.895Z,29.25
2022-10-14T09:49:46.946Z,27.92
2022-10-14T09:54:58.630Z,31.48
2022-10-14T10:00:03.931Z,30.90
2022-10-14T10:05:14.147Z,35.50
2022-10-14T10:10:22.638Z,24.13
2022-10-14T10:15:24.440Z,23.83
2022-10-14T10:20:34.128Z,22.77
2022-10-14T10:25:35.494Z,21.15
2022-10-14T10:30:48.434Z,21.92
2022-10-14T10:35:52.539Z,27.65
2022-10-14T10:41:21.779Z,21.05
2022-10-14T10:46:32.248Z,19.55
2022-10-14T10:52:04.198Z,17.17
2022-10-14T10:57:18.523Z,21.17
2022-10-14T11:02:38.770Z,17.58
2022-10-14T11:08:12.619Z,17.73
2022-10-14T11:13:29.488Z,20.83
2022-10-14T11:19:10.890Z,18.52
2022-10-14T11:24:33.774Z,17.13
2022-10-14T11:29:54.234Z,18.13
2022-10-14T11:35:17.065Z,15.80
2022-10-14T11:40:39.604Z,14.63
2022-10-14T11:45:51.212Z,15.15
2022-10-14T11:51:05.142Z,16.73
2022-10-14T11:56:30.963Z,13.52
2022-10-14T12:01:38.643Z,15.98
2022-10-14T12:06:57.195Z,11.50
2022-10-14T12:12:11.814Z,14.70
2022-10-14T12:17:23.523Z,11.50
2022-10-14T12:22:29.149Z,11.73
2022-10-14T12:27:31.297Z,12.93
2022-10-14T12:32:32.947Z,12.65
2022-10-14T12:37:38.027Z,13.02
2022-10-14T12:42:42.169Z,11.95
2022-10-14T12:47:43.991Z,13.73
2022-10-14T12:52:55.660Z,13.05
2022-10-14T12:58:06.165Z,11.10
2022-10-14T13:03:20.479Z,10.45
2022-10-14T13:08:25.573Z,8.73
2022-10-14T13:13:40.040Z,9.27
2022-10-14T13:18:44.209Z,10.48
2022-10-14T13:23:50.732Z,14.23
2022-10-14T13:29:04.479Z,11.82
2022-10-14T13:34:27.653Z,11.95
2022-10-14T13:39:32.855Z,11.68
2022-10-14T13:44:35.606Z,14.30
2022-10-14T13:49:40.374Z,13.98
2022-10-14T13:54:41.859Z,12.02
2022-10-14T14:00:09.061Z,9.73
2022-10-14T14:05:16.190Z,11.05
2022-10-14T14:10:20.723Z,11.30
2022-10-14T14:15:27.393Z,14.02
2022-10-14T14:20:29.608Z,15.35
2022-10-14T14:25:36.707Z,12.15
2022-10-14T14:30:39.171Z,11.77
2022-10-14T14:35:51.933Z,16.33
2022-10-14T14:41:06.842Z,14.10
2022-10-14T14:46:17.273Z,13.25
2022-10-14T14:51:19.152Z,14.70
2022-10-14T14:56:31.552Z,11.35
2022-10-14T15:01:33.197Z,13.55
2022-10-14T15:06:34.665Z,11.32
2022-10-14T15:11:49.362Z,12.35
2022-10-14T15:16:54.178Z,13.93
2022-10-14T15:22:22.860Z,14.27
2022-10-14T15:27:35.638Z,22.65
2022-10-14T15:32:37.167Z,13.75
2022-10-14T15:37:38.622Z,20.23
2022-10-14T15:42:40.270Z,20.50
2022-10-14T15:47:42.640Z,22.63
2022-10-14T15:52:45.341Z,17.95
2022-10-14T15:57:49.743Z,23.40
2022-10-14T16:02:58.397Z,18.85
2022-10-14T16:08:01.698Z,22.15
2022-10-14T16:13:03.110Z,21.60
2022-10-14T16:18:04.687Z,17.13
2022-10-14T16:23:06.792Z,18.02
2022-10-14T16:28:12.735Z,22.35
2022-10-14T16:33:19.236Z,24.80
2022-10-14T16:38:21.294Z,25.45
2022-10-14T16:43:22.731Z,21.58
2022-10-14T16:48:24.075Z,24.00
2022-10-14T16:53:41.062Z,24.95
2022-10-14T16:58:42.439Z,25.30
2022-10-14T17:03:44.663Z,23.17
2022-10-14T17:08:45.987Z,24.98
2022-10-14T17:13:51.586Z,28.50
2022-10-14T17:18:52.979Z,23.63
2022-10-14T17:23:54.294Z,24.35
2022-10-14T17:28:57.080Z,23.27
2022-10-14T17:33:59.204Z,24.08
2022-10-14T17:39:00.640Z,27.45
2022-10-14T17:44:02.705Z,24.52
2022-10-14T17:49:06.358Z,19.10
2022-10-14T17:54:10.935Z,23.52
2022-10-14T17:59:14.029Z,25.08
2022-10-14T18:04:15.690Z,21.95
2022-10-14T18:09:17.107Z,29.02
2022-10-14T18:14:18.505Z,28.48
2022-10-14T18:19:19.904Z,19.83
2022-10-14T18:24:21.369Z,23.90
2022-10-14T18:29:23.814Z,25.85
2022-10-14T18:34:27.184Z,26.02
2022-10-14T18:39:28.603Z,20.83
2022-10-14T18:44:29.966Z,21.05
2022-10-14T18:49:33.642Z,23.15
2022-10-14T18:54:38.105Z,23.10
2022-10-14T18:59:39.535Z,22.50
2022-10-14T19:04:40.868Z,23.48
2022-10-14T19:09:42.286Z,30.50
2022-10-14T19:14:44.344Z,21.13
2022-10-14T19:19:45.710Z,25.15
2022-10-14T19:24:47.053Z,20.17
2022-10-14T19:29:48.400Z,21.95
2022-10-14T19:34:49.714Z,18.63
2022-10-14T19:39:51.055Z,18.40
2022-10-14T19:44:52.959Z,17.33
2022-10-14T19:49:54.315Z,17.33
2022-10-14T19:54:55.692Z,16.58
2022-10-14T19:59:57.064Z,15.15
2022-10-14T20:04:58.398Z,14.20
2022-10-14T20:10:02.013Z,9.93
2022-10-14T20:15:06.700Z,12.70
2022-10-14T20:20:08.711Z,13.13
2022-10-14T20:25:10.255Z,8.68
2022-10-14T20:30:12.137Z,8.57
2022-10-14T20:35:15.151Z,11.70
2022-10-14T20:40:16.850Z,10.15
2022-10-14T20:45:18.575Z,10.05
2022-10-14T20:50:20.449Z,12.90
2022-10-14T20:55:21.813Z,14.25
2022-10-14T21:00:23.183Z,9.95
2022-10-14T21:05:25.192Z,8.38
2022-10-14T21:10:27.345Z,6.28
2022-10-14T21:15:28.717Z,7.60
2022-10-14T21:20:30.060Z,4.63
2022-10-14T21:25:31.454Z,6.20
2022-10-14T21:30:32.824Z,4.95
2022-10-14T21:35:34.169Z,4.65
2022-10-14T21:40:35.537Z,4.50
2022-10-14T21:45:36.866Z,5.43
2022-10-14T21:50:38.182Z,4.85
2022-10-14T21:55:39.645Z,5.70
2022-10-14T22:00:40.972Z,8.27
2022-10-14T22:05:42.327Z,11.68
2022-10-14T22:10:44.906Z,8.63
2022-10-14T22:15:46.265Z,8.05
2022-10-14T22:20:48.991Z,10.80
2022-10-14T22:25:50.347Z,13.90
2022-10-14T22:30:51.678Z,16.20
2022-10-14T22:35:53.043Z,21.48
2022-10-14T22:40:54.362Z,20.10
2022-10-14T22:46:03.300Z,22.08
2022-10-14T22:51:13.314Z,23.40
2022-10-14T22:56:17.273Z,25.60
2022-10-14T23:01:18.709Z,28.52
2022-10-14T23:06:20.488Z,25.60
2022-10-14T23:11:24.015Z,30.90
2022-10-14T23:16:27.447Z,27.95
2022-10-14T23:21:34.235Z,27.45
2022-10-14T23:26:36.093Z,29.98
2022-10-14T23:31:39.298Z,32.88
2022-10-14T23:36:41.395Z,29.92
2022-10-14T23:41:43.259Z,22.92
2022-10-14T23:46:44.686Z,26.33
2022-10-14T23:51:46.020Z,12.40
2022-10-14T23:56:47.396Z,13.77
